Time;durP1;ratioP1;P1;durP2;ratioP2;P2;SDS_P1;SDS_P2;PMS_P1;PMS_P2;Temp;Humidity;BMP_temperature;BMP_pressure;BME280_temperature;BME280_humidity;BME280_pressure;Samples;Min_cycle;Max_cycle;Signal;HPM_P1;HPM_P2
2022/07/11 00:00:13;;;;;;;0.90;0.20;;;16.30;98.60;;;;;;5051918;28;20115;-91
2022/07/11 00:02:39;;;;;;;0.35;0.25;;;16.30;98.70;;;;;;5064494;28;20036;-91
2022/07/11 00:05:05;;;;;;;0.40;0.13;;;16.30;98.70;;;;;;5047309;28;20041;-90
2022/07/11 00:07:37;;;;;;;0.98;0.20;;;16.40;98.90;;;;;;5032042;28;20025;-89
2022/07/11 00:10:09;;;;;;;0.93;0.35;;;16.40;99.10;;;;;;5046941;28;20025;-90
2022/07/11 00:12:35;;;;;;;1.27;0.20;;;16.40;99.10;;;;;;5033216;28;20072;-91
2022/07/11 00:15:11;;;;;;;1.33;0.35;;;16.50;99.30;;;;;;5033140;28;20021;-91
2022/07/11 00:17:39;;;;;;;0.75;0.20;;;16.50;99.20;;;;;;5030529;28;20025;-90
2022/07/11 00:20:05;;;;;;;0.20;0.10;;;16.50;99.20;;;;;;5033550;28;20063;-91
2022/07/11 00:22:31;;;;;;;0.45;0.20;;;16.60;99.30;;;;;;5031992;28;20041;-90
2022/07/11 00:24:57;;;;;;;0.20;0.10;;;16.50;99.30;;;;;;5043842;28;20057;-90
2022/07/11 00:27:35;;;;;;;0.82;0.20;;;16.40;99.40;;;;;;5030166;28;20025;-90
2022/07/11 00:30:05;;;;;;;1.58;0.20;;;16.50;99.60;;;;;;5031885;28;20056;-89
2022/07/11 00:32:30;;;;;;;0.65;0.20;;;16.60;99.60;;;;;;5046052;28;20105;-90
2022/07/11 00:35:01;;;;;;;0.60;0.20;;;16.40;99.40;;;;;;5046966;28;20732;-89
2022/07/11 00:37:27;;;;;;;2.60;0.20;;;16.40;99.70;;;;;;5032189;28;20037;-90
2022/07/11 00:39:59;;;;;;;1.95;0.20;;;16.40;99.70;;;;;;5048780;28;20032;-90
2022/07/11 00:42:25;;;;;;;0.95;0.13;;;16.50;99.80;;;;;;5046726;28;20461;-89
2022/07/11 00:44:50;;;;;;;0.52;0.20;;;16.40;99.90;;;;;;5046956;28;20161;-89
2022/07/11 00:47:25;;;;;;;1.13;0.25;;;16.30;99.90;;;;;;5039188;28;20501;-90
2022/07/11 00:49:51;;;;;;;0.22;0.17;;;16.30;99.90;;;;;;5047286;28;20030;-89
2022/07/11 00:52:17;;;;;;;0.57;0.20;;;16.20;99.90;;;;;;5030682;28;20029;-89
2022/07/11 00:54:45;;;;;;;0.50;0.20;;;16.20;99.90;;;;;;5046338;28;20028;-90
2022/07/11 00:57:11;;;;;;;0.57;0.20;;;16.10;99.90;;;;;;5033323;28;20022;-89
2022/07/11 00:59:40;;;;;;;2.10;0.20;;;16.10;99.90;;;;;;5030682;28;20032;-89
2022/07/11 01:02:08;;;;;;;0.32;0.10;;;16.00;99.90;;;;;;5029883;28;20034;-90
2022/07/11 01:04:34;;;;;;;0.40;0.10;;;16.20;99.90;;;;;;5032090;28;20025;-91
2022/07/11 01:07:02;;;;;;;0.95;0.10;;;16.00;99.90;;;;;;5046573;28;20032;-91
2022/07/11 01:09:31;;;;;;;0.70;0.20;;;15.90;99.90;;;;;;5031630;28;20052;-90
2022/07/11 01:11:57;;;;;;;0.60;0.20;;;15.90;99.90;;;;;;5029875;28;20033;-90
2022/07/11 01:14:26;;;;;;;0.47;0.13;;;15.90;99.90;;;;;;5033719;28;20018;-90
2022/07/11 01:17:03;;;;;;;0.80;0.20;;;15.90;99.90;;;;;;5032428;28;20040;-88
2022/07/11 01:19:29;;;;;;;1.88;0.20;;;15.80;99.90;;;;;;5032475;28;20025;-91
2022/07/11 01:22:03;;;;;;;0.52;0.20;;;15.80;99.90;;;;;;5043250;28;20051;-89
2022/07/11 01:24:31;;;;;;;0.98;0.20;;;15.70;99.90;;;;;;5030434;28;20521;-90
2022/07/11 01:26:58;;;;;;;0.73;0.20;;;15.70;99.90;;;;;;5046204;28;20033;-89
2022/07/11 01:29:24;;;;;;;0.57;0.20;;;15.70;99.90;;;;;;5032604;28;20033;-90
2022/07/11 01:31:57;;;;;;;0.95;0.20;;;15.60;99.90;;;;;;5017881;28;21556;-91
2022/07/11 01:34:25;;;;;;;0.40;0.20;;;15.70;99.90;;;;;;5031152;28;20044;-91
2022/07/11 01:36:51;;;;;;;0.70;0.20;;;15.70;99.90;;;;;;5047131;28;20116;-91
2022/07/11 01:39:29;;;;;;;;;;;;;;;;;;;;;
2022/07/11 01:42:02;;;;;;;1.33;0.28;;;15.70;99.90;;;;;;5033671;28;20440;-91
2022/07/11 01:44:30;;;;;;;1.00;0.30;;;15.70;99.90;;;;;;5033245;28;20025;-90
2022/07/11 01:46:56;;;;;;;0.73;0.30;;;15.80;99.90;;;;;;5033482;28;20025;-89
2022/07/11 01:49:22;;;;;;;1.33;0.50;;;15.80;99.90;;;;;;5034739;28;20647;-91
2022/07/11 01:51:51;;;;;;;0.85;0.30;;;15.70;99.90;;;;;;5045175;28;20083;-90
2022/07/11 01:54:24;;;;;;;1.60;0.40;;;15.70;99.90;;;;;;5028641;28;20035;-91
2022/07/11 01:56:50;;;;;;;1.33;0.40;;;15.70;99.90;;;;;;5029451;28;20691;-91
2022/07/11 01:59:23;;;;;;;0.82;0.38;;;16.00;99.90;;;;;;5032144;28;20049;-91
2022/07/11 02:01:54;;;;;;;0.70;0.30;;;15.80;99.90;;;;;;5030040;28;20030;-91
2022/07/11 02:04:23;;;;;;;0.80;0.30;;;15.80;99.90;;;;;;5041807;28;20030;-90
2022/07/11 02:06:51;;;;;;;0.65;0.38;;;15.80;99.90;;;;;;5047098;28;20105;-90
2022/07/11 02:09:20;;;;;;;2.03;0.20;;;15.70;99.90;;;;;;5042243;28;20037;-90
2022/07/11 02:11:46;;;;;;;2.28;0.40;;;15.70;99.90;;;;;;5031400;28;20030;-90
2022/07/11 02:14:13;;;;;;;1.20;0.40;;;15.70;99.90;;;;;;5048966;28;20040;-90
2022/07/11 02:16:41;;;;;;;1.25;0.38;;;15.70;99.90;;;;;;5049016;28;20037;-91
2022/07/11 02:19:10;;;;;;;0.88;0.30;;;15.70;99.90;;;;;;5035314;28;20049;-91
2022/07/11 02:21:39;;;;;;;0.95;0.38;;;15.70;99.90;;;;;;5036048;28;20038;-91
2022/07/11 02:24:04;;;;;;;1.20;0.38;;;15.70;99.90;;;;;;5032241;28;20026;-91
2022/07/11 02:26:30;;;;;;;0.98;0.50;;;15.70;99.90;;;;;;5037673;28;20079;-91
2022/07/11 02:29:06;;;;;;;2.80;0.40;;;15.90;99.90;;;;;;5033465;28;20036;-89
2022/07/11 02:31:32;;;;;;;1.65;0.40;;;15.60;99.90;;;;;;5045369;28;20130;-90
2022/07/11 02:34:00;;;;;;;1.75;0.30;;;15.60;99.90;;;;;;5032100;28;20029;-89
2022/07/11 02:36:26;;;;;;;0.68;0.30;;;15.70;99.90;;;;;;5049380;28;20036;-91
2022/07/11 02:38:53;;;;;;;0.60;0.20;;;15.70;99.90;;;;;;5034828;28;20417;-90
2022/07/11 02:41:19;;;;;;;0.88;0.22;;;15.70;99.90;;;;;;5028992;28;20071;-91
2022/07/11 02:43:47;;;;;;;0.90;0.30;;;15.70;99.90;;;;;;5048311;28;20413;-90
2022/07/11 02:46:13;;;;;;;0.80;0.28;;;15.90;99.90;;;;;;5033681;28;20504;-91
2022/07/11 02:48:41;;;;;;;0.60;0.20;;;15.70;99.90;;;;;;5035026;28;20061;-91
2022/07/11 02:51:06;;;;;;;1.27;0.20;;;15.70;99.90;;;;;;5031280;28;20493;-91
2022/07/11 02:53:37;;;;;;;0.65;0.30;;;15.70;99.90;;;;;;5030469;28;20052;-90
2022/07/11 02:56:06;;;;;;;3.05;0.60;;;15.80;99.90;;;;;;5031671;28;20033;-91
2022/07/11 02:58:35;;;;;;;0.90;0.40;;;15.80;99.90;;;;;;5033516;28;20517;-90
2022/07/11 03:01:03;;;;;;;1.30;0.50;;;15.80;99.90;;;;;;5032003;28;20024;-91
2022/07/11 03:03:29;;;;;;;0.93;0.38;;;15.80;99.90;;;;;;5036155;28;20034;-90
2022/07/11 03:05:55;;;;;;;2.20;0.40;;;15.70;99.90;;;;;;5042808;28;20086;-91
2022/07/11 03:08:23;;;;;;;1.92;0.40;;;15.70;99.90;;;;;;5030331;28;20118;-90
2022/07/11 03:10:49;;;;;;;1.13;0.40;;;15.70;99.90;;;;;;5032573;28;20033;-89
2022/07/11 03:13:14;;;;;;;0.93;0.40;;;15.70;99.90;;;;;;5047943;28;20044;-91
2022/07/11 03:15:41;;;;;;;1.17;0.40;;;15.70;99.90;;;;;;5035120;28;20036;-91
2022/07/11 03:18:07;;;;;;;1.48;0.50;;;15.60;99.90;;;;;;5036744;28;20121;-90
2022/07/11 03:20:46;;;;;;;1.63;0.40;;;15.60;99.90;;;;;;5046150;28;20061;-91
2022/07/11 03:23:11;;;;;;;0.73;0.30;;;15.60;99.90;;;;;;5034440;28;20120;-91
2022/07/11 03:25:43;;;;;;;0.95;0.32;;;15.60;99.90;;;;;;5034735;28;20458;-91
2022/07/11 03:28:08;;;;;;;1.08;0.30;;;15.60;99.90;;;;;;5037047;28;20505;-91
2022/07/11 03:30:34;;;;;;;0.73;0.32;;;15.70;99.90;;;;;;5034491;28;20042;-91
2022/07/11 03:33:00;;;;;;;2.00;0.40;;;15.70;99.90;;;;;;5046016;28;20018;-91
2022/07/11 03:35:40;;;;;;;1.10;0.30;;;15.70;99.90;;;;;;5051919;28;20025;-90
2022/07/11 03:38:06;;;;;;;1.27;0.40;;;15.60;99.90;;;;;;5036349;28;20037;-91
2022/07/11 03:40:32;;;;;;;0.98;0.38;;;15.60;99.90;;;;;;5035831;28;20021;-91
2022/07/11 03:42:58;;;;;;;0.60;0.30;;;15.70;99.90;;;;;;5032568;28;20024;-92
2022/07/11 03:45:24;;;;;;;0.47;0.25;;;15.60;99.90;;;;;;5032451;28;20064;-90
2022/07/11 03:47:58;;;;;;;1.08;0.40;;;15.60;99.90;;;;;;5036162;28;20037;-91
2022/07/11 03:50:24;;;;;;;0.95;0.40;;;15.70;99.90;;;;;;5032849;28;20045;-90
2022/07/11 03:52:50;;;;;;;1.52;0.50;;;15.60;99.90;;;;;;5035447;28;20034;-91
2022/07/11 03:55:19;;;;;;;0.43;0.20;;;15.70;99.90;;;;;;5031472;28;20033;-90
2022/07/11 03:57:44;;;;;;;1.08;0.50;;;15.60;99.90;;;;;;5031007;28;20048;-91
2022/07/11 04:00:16;;;;;;;1.50;0.50;;;15.60;99.90;;;;;;5049221;28;20053;-90
2022/07/11 04:02:42;;;;;;;;;;;15.60;99.90;;;;;;5033447;28;20178;-91
2022/07/11 04:05:08;;;;;;;0.85;0.50;;;15.60;99.90;;;;;;5037421;28;19913;-91
2022/07/11 04:07:33;;;;;;;1.17;0.55;;;15.60;99.90;;;;;;5047608;28;20030;-91
2022/07/11 04:09:59;;;;;;;1.15;0.50;;;15.60;99.90;;;;;;5044566;28;20033;-91
2022/07/11 04:12:25;;;;;;;1.52;0.50;;;15.60;99.90;;;;;;5032956;28;20489;-91
2022/07/11 04:14:51;;;;;;;1.25;0.60;;;15.60;99.90;;;;;;5031638;28;20037;-91
2022/07/11 04:17:20;;;;;;;1.67;0.70;;;15.70;99.90;;;;;;5031414;28;20119;-90
2022/07/11 04:19:50;;;;;;;1.40;0.60;;;15.80;99.90;;;;;;5043810;28;20041;-92
2022/07/11 04:22:18;;;;;;;1.90;0.70;;;15.70;99.90;;;;;;5049455;28;20024;-90
2022/07/11 04:24:44;;;;;;;1.70;0.70;;;15.60;99.90;;;;;;5030479;28;20473;-89
2022/07/11 04:27:12;;;;;;;1.38;0.65;;;15.70;99.90;;;;;;5042042;28;20045;-89
2022/07/11 04:29:38;;;;;;;2.20;0.90;;;15.70;99.90;;;;;;5029964;28;20029;-91
2022/07/11 04:32:04;;;;;;;1.45;0.60;;;15.70;99.90;;;;;;5028800;28;20051;-91
2022/07/11 04:34:30;;;;;;;1.58;0.60;;;15.80;99.90;;;;;;5029903;28;20041;-91
2022/07/11 04:36:58;;;;;;;1.67;0.70;;;15.80;99.90;;;;;;5030425;28;20025;-92
2022/07/11 04:39:27;;;;;;;1.45;0.70;;;15.90;99.90;;;;;;5024429;28;20034;-91
2022/07/11 04:41:53;;;;;;;2.05;0.82;;;15.90;99.90;;;;;;5043608;28;20026;-92
2022/07/11 04:44:19;;;;;;;1.48;0.63;;;16.00;99.90;;;;;;5029205;28;20044;-91
2022/07/11 04:46:47;;;;;;;1.83;0.70;;;16.00;99.90;;;;;;5042183;28;20473;-91
2022/07/11 04:49:13;;;;;;;1.55;0.77;;;16.10;99.90;;;;;;5044259;28;20042;-90
2022/07/11 04:51:55;;;;;;;1.13;0.32;;;16.10;99.90;;;;;;5029433;28;20502;-91
2022/07/11 04:54:25;;;;;;;1.65;0.43;;;16.20;99.90;;;;;;5039466;28;20099;-91
2022/07/11 04:57:09;;;;;;;0.75;0.30;;;16.20;99.90;;;;;;5041519;28;20041;-91
2022/07/11 04:59:39;;;;;;;2.35;0.60;;;16.20;99.90;;;;;;5025068;28;20536;-91
2022/07/11 05:02:05;;;;;;;2.22;0.80;;;16.30;99.90;;;;;;5042754;28;20413;-90
2022/07/11 05:04:31;;;;;;;0.90;0.40;;;16.30;99.90;;;;;;5033154;28;20036;-90
2022/07/11 05:06:57;;;;;;;1.20;0.50;;;16.30;99.90;;;;;;5042714;28;20120;-90
2022/07/11 05:09:22;;;;;;;2.50;0.70;;;16.40;99.90;;;;;;5024664;28;20021;-90
2022/07/11 05:11:48;;;;;;;1.30;0.60;;;16.40;99.90;;;;;;5044312;28;20021;-90
2022/07/11 05:14:15;;;;;;;1.13;0.45;;;16.30;99.90;;;;;;5031435;28;20406;-90
2022/07/11 05:16:40;;;;;;;1.25;0.55;;;16.40;99.90;;;;;;5035897;28;20079;-91
2022/07/11 05:19:08;;;;;;;1.00;0.50;;;16.50;99.90;;;;;;5028643;28;20428;-91
2022/07/11 05:21:36;;;;;;;0.95;0.45;;;16.50;99.90;;;;;;5029558;28;20026;-90
2022/07/11 05:24:02;;;;;;;2.28;0.73;;;16.60;99.90;;;;;;5028878;28;20017;-90
2022/07/11 05:26:33;;;;;;;1.45;0.60;;;16.70;99.90;;;;;;5029599;28;20043;-90
2022/07/11 05:29:24;;;;;;;0.98;0.55;;;16.80;99.90;;;;;;5040542;28;20042;-88
2022/07/11 05:31:52;;;;;;;4.03;0.57;;;16.80;99.90;;;;;;5020581;28;20047;-90
2022/07/11 05:34:20;;;;;;;1.58;0.40;;;16.60;99.90;;;;;;5030887;28;20028;-89
2022/07/11 05:36:57;;;;;;;1.85;0.50;;;16.40;99.90;;;;;;5028997;28;20051;-88
2022/07/11 05:39:34;;;;;;;1.65;0.60;;;16.20;99.90;;;;;;5044469;28;20572;-88
2022/07/11 05:45:25;;;;;;;1.60;0.80;;;16.20;99.90;;;;;;5021981;28;20116;-89
2022/07/11 05:47:51;;;;;;;2.15;0.70;;;16.50;99.90;;;;;;5032710;28;20022;-88
2022/07/11 05:50:21;;;;;;;1.65;0.70;;;16.60;99.90;;;;;;5034422;28;20022;-88
2022/07/11 05:52:50;;;;;;;2.00;0.52;;;16.80;99.90;;;;;;5028830;28;20052;-88
2022/07/11 05:58:31;;;;;;;1.88;0.90;;;17.00;99.90;;;;;;5032463;28;20068;-89
2022/07/11 06:00:59;;;;;;;2.20;0.80;;;17.20;99.90;;;;;;5030761;28;20503;-90
2022/07/11 06:06:55;;;;;;;1.20;0.63;;;17.50;99.90;;;;;;5031171;28;20032;-88
2022/07/11 06:09:29;;;;;;;1.67;0.70;;;17.70;99.90;;;;;;5029886;28;20052;-88
2022/07/11 06:12:08;;;;;;;2.00;0.88;;;17.60;99.90;;;;;;5033374;28;20071;-89
2022/07/11 06:14:37;;;;;;;1.35;0.70;;;17.50;99.90;;;;;;5031176;28;20063;-90
2022/07/11 06:17:02;;;;;;;2.55;0.88;;;17.50;99.90;;;;;;5044042;28;20129;-88
2022/07/11 06:19:50;;;;;;;2.00;0.80;;;17.60;99.90;;;;;;5030623;28;20108;-90
2022/07/11 06:22:33;;;;;;;2.08;0.80;;;17.60;99.90;;;;;;5029417;28;20040;-90
2022/07/11 06:25:11;;;;;;;3.63;0.77;;;17.70;99.90;;;;;;5031104;28;20029;-90
2022/07/11 06:28:02;;;;;;;2.47;0.90;;;17.60;99.90;;;;;;5029066;28;20102;-89
2022/07/11 06:30:31;;;;;;;1.88;0.75;;;17.70;99.90;;;;;;5028086;28;20044;-90
2022/07/11 06:36:49;;;;;;;1.10;0.55;;;17.90;99.90;;;;;;4966661;28;20038;-90
2022/07/11 06:39:32;;;;;;;1.73;0.55;;;18.10;99.90;;;;;;5025922;28;20041;-90
2022/07/11 06:41:59;;;;;;;0.93;0.50;;;18.40;99.90;;;;;;5029160;28;20064;-90
2022/07/11 06:47:17;;;;;;;2.25;0.80;;;18.40;99.90;;;;;;5025782;28;20034;-90
2022/07/11 06:49:43;;;;;;;1.70;0.73;;;18.40;99.90;;;;;;5032410;28;20513;-90
2022/07/11 06:52:09;;;;;;;2.03;0.80;;;18.50;99.90;;;;;;5028951;28;20417;-89
2022/07/11 06:54:35;;;;;;;1.67;0.70;;;18.60;99.90;;;;;;5029080;28;20082;-89
2022/07/11 06:57:01;;;;;;;1.40;0.68;;;18.70;99.90;;;;;;5027240;28;20101;-88
2022/07/11 06:59:26;;;;;;;1.80;0.63;;;18.60;99.90;;;;;;5031404;28;20620;-89
2022/07/11 07:01:52;;;;;;;3.13;0.90;;;18.70;99.90;;;;;;5043790;28;20173;-90
2022/07/11 07:04:18;;;;;;;2.72;0.80;;;18.70;99.90;;;;;;5031746;28;20022;-90
2022/07/11 07:06:43;;;;;;;1.45;0.60;;;18.80;99.90;;;;;;5050786;28;20025;-89
2022/07/11 07:09:09;;;;;;;2.63;0.93;;;18.90;99.90;;;;;;5032459;28;20064;-89
2022/07/11 07:11:35;;;;;;;1.65;0.80;;;19.00;99.90;;;;;;5037795;28;20630;-90
2022/07/11 07:14:02;;;;;;;2.28;0.70;;;19.10;99.90;;;;;;5035829;28;20029;-91
2022/07/11 07:16:28;;;;;;;1.27;0.60;;;19.30;99.90;;;;;;5026238;28;20026;-90
2022/07/11 07:18:54;;;;;;;2.25;1.05;;;19.30;99.90;;;;;;5044922;28;20048;-89
2022/07/11 07:21:22;;;;;;;2.00;0.70;;;19.40;99.90;;;;;;5036740;28;20482;-89
2022/07/11 07:23:54;;;;;;;2.65;0.85;;;19.50;99.90;;;;;;5049654;28;20029;-90
2022/07/11 07:26:22;;;;;;;1.20;0.60;;;19.60;99.90;;;;;;5047064;28;20481;-92
2022/07/11 07:28:48;;;;;;;1.58;0.60;;;19.60;99.90;;;;;;5049906;28;20030;-92
2022/07/11 07:32:02;;;;;;;1.73;0.70;;;19.70;99.90;;;;;;5034811;28;20059;-93
2022/07/11 08:07:58;;;;;;;0.57;0.30;;;21.10;99.90;;;;;;5033468;28;20053;-91
2022/07/11 08:10:43;;;;;;;1.17;0.43;;;21.20;99.90;;;;;;5017541;28;20032;-91
2022/07/11 08:13:19;;;;;;;0.77;0.30;;;21.00;99.90;;;;;;5016448;28;20045;-92
2022/07/11 08:29:00;;;;;;;1.02;0.22;;;21.30;99.90;;;;;;5050759;28;20064;-92
2022/07/11 08:32:28;;;;;;;;;;;;;;;;;;;;;
2022/07/11 08:38:24;;;;;;;1.38;0.32;;;21.70;97.40;;;;;;4972888;28;20043;-92
2022/07/11 08:41:19;;;;;;;0.57;0.22;;;21.30;97.80;;;;;;4937275;29;20035;-93
2022/07/11 08:44:06;;;;;;;0.52;0.20;;;21.10;98.00;;;;;;4933854;29;20061;-92
2022/07/11 09:43:25;;;;;;;0.52;0.20;;;23.40;93.90;;;;;;2878955;22;20110;-93
2022/07/11 09:45:51;;;;;;;0.98;0.30;;;23.70;93.60;;;;;;5059180;28;20410;-92
2022/07/11 09:49:16;;;;;;;0.32;0.10;;;24.50;93.50;;;;;;5056266;28;20017;-92
2022/07/11 09:55:25;;;;;;;0.32;0.10;;;24.70;91.50;;;;;;5054130;28;20044;-92
2022/07/11 09:58:21;;;;;;;0.77;0.30;;;24.90;91.20;;;;;;5068581;28;20029;-92
2022/07/11 10:00:47;;;;;;;2.28;0.20;;;24.80;90.90;;;;;;5041970;28;20033;-91
2022/07/11 10:03:15;;;;;;;0.90;0.20;;;24.80;91.50;;;;;;5055036;28;20074;-91
2022/07/11 10:05:41;;;;;;;1.00;0.30;;;24.90;90.30;;;;;;5057668;28;20024;-92
2022/07/11 10:08:20;;;;;;;0.75;0.20;;;24.90;90.30;;;;;;5054207;28;20048;-92
2022/07/11 10:10:52;;;;;;;0.17;0.10;;;24.90;89.30;;;;;;5054560;28;20170;-92
2022/07/11 10:13:37;;;;;;;1.15;0.32;;;25.40;89.90;;;;;;5060612;28;20017;-92
2022/07/11 10:16:31;;;;;;;1.27;0.38;;;25.70;89.50;;;;;;5048393;28;20025;-92
2022/07/11 10:19:46;;;;;;;1.20;0.30;;;25.50;89.60;;;;;;5073202;28;20033;-92
2022/07/11 10:22:42;;;;;;;1.05;0.20;;;25.30;89.70;;;;;;5055066;28;20029;-92
2022/07/11 10:25:20;;;;;;;0.40;0.20;;;24.90;89.60;;;;;;5050320;28;20072;-91
2022/07/11 10:28:10;;;;;;;1.42;0.20;;;24.70;88.30;;;;;;5060173;28;20120;-90
2022/07/11 10:31:18;;;;;;;0.77;0.20;;;24.50;89.40;;;;;;5058216;28;20025;-92
2022/07/11 10:37:55;;;;;;;0.40;0.10;;;24.20;89.60;;;;;;5056005;28;20109;-91
2022/07/11 10:44:44;;;;;;;;;;;;;;;;;;;;;
2022/07/11 10:57:25;;;;;;;0.40;0.20;;;24.60;89.80;;;;;;5156490;22;20053;-90
2022/07/11 11:00:11;;;;;;;0.40;0.20;;;24.90;89.30;;;;;;5030007;28;20029;-89
2022/07/11 11:03:09;;;;;;;0.28;0.10;;;25.40;87.90;;;;;;5029573;28;20026;-88
2022/07/11 11:06:03;;;;;;;0.47;0.20;;;25.90;86.50;;;;;;5039355;28;20014;-89
2022/07/11 11:08:33;;;;;;;0.70;0.30;;;25.70;86.80;;;;;;5027761;28;20118;-89
2022/07/11 11:11:26;;;;;;;0.95;0.20;;;25.50;87.30;;;;;;5031703;28;20025;-87
2022/07/11 11:14:18;;;;;;;0.63;0.25;;;25.20;87.70;;;;;;5028848;28;20544;-88
2022/07/11 11:16:49;;;;;;;0.60;0.20;;;24.90;87.80;;;;;;5029610;28;20041;-88
2022/07/11 11:19:49;;;;;;;0.93;0.30;;;24.90;87.60;;;;;;5028756;28;20037;-86
2022/07/11 11:22:25;;;;;;;1.40;0.28;;;24.90;88.60;;;;;;5015267;28;20500;-89
2022/07/11 11:25:00;;;;;;;0.82;0.30;;;25.00;88.00;;;;;;5027617;28;20490;-87
2022/07/11 11:28:16;;;;;;;0.52;0.20;;;25.30;88.20;;;;;;5029961;28;20485;-91
2022/07/11 11:55:49;;;;;;;1.13;0.50;;;25.50;86.40;;;;;;5046789;28;20129;-91
2022/07/11 11:58:37;;;;;;;1.05;0.25;;;24.90;86.60;;;;;;5029922;28;20228;-91
2022/07/11 12:04:51;;;;;;;0.65;0.20;;;24.60;88.50;;;;;;5007425;28;20480;-91
2022/07/11 12:07:36;;;;;;;0.63;0.30;;;24.70;89.50;;;;;;4982805;28;20030;-92
2022/07/11 12:10:35;;;;;;;0.63;0.30;;;25.10;87.70;;;;;;5032104;28;20072;-90
2022/07/11 12:13:02;;;;;;;0.45;0.20;;;25.30;87.20;;;;;;5031385;28;20038;-91
2022/07/11 12:22:18;;;;;;;0.85;0.20;;;26.60;84.90;;;;;;5050500;28;20121;-91
2022/07/11 12:25:11;;;;;;;0.43;0.22;;;27.00;85.50;;;;;;5028175;28;20021;-92
2022/07/11 12:27:40;;;;;;;0.50;0.30;;;27.20;83.20;;;;;;5032604;28;20029;-91
2022/07/11 12:30:07;;;;;;;0.52;0.20;;;27.10;82.60;;;;;;5033206;28;20485;-91
2022/07/11 12:32:38;;;;;;;1.17;0.35;;;26.90;83.00;;;;;;5030025;28;20021;-90
2022/07/11 12:35:17;;;;;;;1.77;0.30;;;26.40;83.00;;;;;;5036376;28;20120;-91
2022/07/11 12:38:05;;;;;;;0.57;0.20;;;26.70;81.90;;;;;;5031219;28;20037;-90
2022/07/11 12:40:34;;;;;;;0.20;0.20;;;26.20;83.60;;;;;;5043822;28;20062;-91
2022/07/11 12:47:06;;;;;;;0.60;0.20;;;25.70;83.40;;;;;;5047222;28;20024;-91
2022/07/11 12:49:44;;;;;;;0.40;0.20;;;25.60;85.60;;;;;;4966855;28;20523;-90
2022/07/11 12:52:14;;;;;;;1.00;0.30;;;25.80;85.30;;;;;;5007716;28;20124;-90
2022/07/11 12:54:49;;;;;;;1.40;0.40;;;25.70;85.60;;;;;;5027877;28;20045;-91
2022/07/11 12:57:26;;;;;;;1.48;0.47;;;25.80;85.50;;;;;;5026195;28;20035;-91
2022/07/11 13:00:01;;;;;;;1.13;0.40;;;26.40;85.50;;;;;;5031193;28;20485;-91
2022/07/11 13:02:31;;;;;;;1.17;0.35;;;26.50;85.10;;;;;;5027280;28;20024;-91
2022/07/11 13:06:02;;;;;;;0.47;0.30;;;27.20;83.50;;;;;;5026797;28;20027;-91
2022/07/11 13:11:32;;;;;;;1.35;0.38;;;27.40;81.60;;;;;;5042545;28;20040;-91
2022/07/11 13:21:19;;;;;;;0.63;0.40;;;26.70;82.90;;;;;;4931964;28;20222;-90
2022/07/11 13:23:55;;;;;;;0.90;0.30;;;26.50;82.60;;;;;;4930723;29;20042;-90
2022/07/11 13:26:51;;;;;;;;;;;;;;;;;;;;;
2022/07/11 13:29:55;;;;;;;2.03;0.40;;;25.70;84.30;;;;;;5037077;28;20519;-91
2022/07/11 13:36:35;;;;;;;0.80;0.30;;;25.70;84.30;;;;;;4944126;28;20495;-91
2022/07/11 13:39:04;;;;;;;1.00;0.32;;;25.80;84.30;;;;;;4952973;28;20074;-91
2022/07/11 13:41:37;;;;;;;0.65;0.32;;;26.20;85.40;;;;;;5034474;28;20074;-91
2022/07/11 13:44:43;;;;;;;0.75;0.30;;;26.20;85.20;;;;;;5030540;28;20452;-91
2022/07/11 13:47:23;;;;;;;0.90;0.40;;;26.20;85.10;;;;;;5024604;28;20117;-90
2022/07/11 13:50:03;;;;;;;0.93;0.43;;;26.00;84.90;;;;;;5031583;28;20025;-90
2022/07/11 13:53:14;;;;;;;;;;;;;;;;;;;;;
2022/07/11 13:55:53;;;;;;;;;;;26.40;84.40;;;;;;5047638;28;20045;-91
2022/07/11 15:15:14;;;;;;;1.13;0.50;;;27.40;82.50;;;;;;5022375;28;20046;-91
2022/07/11 15:17:53;;;;;;;1.02;0.40;;;26.90;82.60;;;;;;5029116;28;20017;-90
2022/07/11 15:20:18;;;;;;;1.30;0.60;;;26.50;83.20;;;;;;5031405;28;20079;-90
2022/07/11 15:22:49;;;;;;;0.98;0.50;;;26.40;83.30;;;;;;5030690;28;20025;-90
2022/07/11 15:25:16;;;;;;;0.52;0.30;;;26.50;84.60;;;;;;5022463;28;20677;-90
2022/07/11 15:27:42;;;;;;;2.90;0.50;;;26.20;84.40;;;;;;5028064;28;20075;-90
2022/07/11 15:30:23;;;;;;;2.70;0.60;;;26.10;83.90;;;;;;5044052;28;20032;-91
2022/07/11 15:33:02;;;;;;;0.93;0.63;;;26.60;84.90;;;;;;5045061;28;20026;-90
2022/07/11 15:35:44;;;;;;;0.80;0.40;;;26.90;84.10;;;;;;5030802;28;20033;-90
2022/07/11 15:38:26;;;;;;;1.73;0.40;;;27.40;82.70;;;;;;5031478;28;20036;-90
2022/07/11 15:41:08;;;;;;;1.20;0.50;;;27.40;82.20;;;;;;5033493;28;20172;-91
2022/07/11 15:43:38;;;;;;;0.75;0.45;;;27.10;82.30;;;;;;5027046;28;20022;-90
2022/07/11 15:46:15;;;;;;;1.65;0.50;;;26.70;82.70;;;;;;5025100;28;20500;-90
2022/07/11 15:48:41;;;;;;;0.55;0.30;;;27.30;82.60;;;;;;5025867;28;20041;-91
2022/07/11 15:51:22;;;;;;;2.60;0.77;;;27.60;80.70;;;;;;5027534;28;20108;-90
2022/07/11 15:53:50;;;;;;;0.88;0.50;;;27.20;81.10;;;;;;5023863;28;20132;-90
2022/07/11 15:56:56;;;;;;;0.60;0.30;;;26.70;82.10;;;;;;5029415;28;20038;-92
2022/07/11 15:59:21;;;;;;;1.30;0.55;;;26.30;83.30;;;;;;5045639;28;20092;-90
2022/07/11 16:01:52;;;;;;;2.50;0.80;;;26.50;83.80;;;;;;5030689;28;20061;-91
2022/07/11 16:04:25;;;;;;;0.60;0.40;;;27.30;83.50;;;;;;5029674;28;20720;-90
2022/07/11 16:07:09;;;;;;;1.05;0.50;;;27.40;81.90;;;;;;5028672;28;20032;-90
2022/07/11 16:09:41;;;;;;;0.65;0.30;;;27.30;81.40;;;;;;5033605;28;20030;-90
2022/07/11 16:12:18;;;;;;;1.73;0.50;;;26.80;81.40;;;;;;5029836;28;20030;-90
2022/07/11 16:14:50;;;;;;;0.80;0.40;;;25.90;82.70;;;;;;5028269;28;20115;-89
2022/07/11 16:17:21;;;;;;;1.67;0.40;;;25.50;83.90;;;;;;5032817;28;20045;-89
2022/07/11 16:19:53;;;;;;;1.30;0.30;;;25.10;84.70;;;;;;5030884;28;20066;-90
2022/07/11 16:22:25;;;;;;;1.63;0.40;;;25.30;83.80;;;;;;5034400;28;20025;-90
2022/07/11 16:24:54;;;;;;;0.88;0.43;;;25.70;84.40;;;;;;5047372;28;20025;-91
2022/07/11 16:27:24;;;;;;;1.27;0.55;;;26.10;83.10;;;;;;5028854;28;20111;-91
2022/07/11 16:29:51;;;;;;;1.13;0.57;;;26.00;82.60;;;;;;5031283;28;20076;-90
2022/07/11 16:32:25;;;;;;;1.00;0.35;;;26.10;83.10;;;;;;5028820;28;20017;-91
2022/07/11 16:35:28;;;;;;;0.80;0.35;;;26.20;82.50;;;;;;5030884;28;20409;-91
2022/07/11 16:38:00;;;;;;;1.25;0.50;;;25.90;83.40;;;;;;5030944;28;20025;-89
2022/07/11 16:43:19;;;;;;;1.13;0.35;;;25.20;85.00;;;;;;5028903;28;20088;-89
2022/07/11 16:45:58;;;;;;;1.08;0.50;;;24.70;86.50;;;;;;5027150;28;20029;-91
2022/07/11 16:48:36;;;;;;;0.88;0.50;;;24.50;87.70;;;;;;5029857;28;20104;-91
2022/07/11 16:51:07;;;;;;;1.08;0.40;;;24.50;87.70;;;;;;5032281;28;20063;-91
2022/07/11 16:53:42;;;;;;;1.30;0.40;;;24.40;87.60;;;;;;5028503;28;20521;-92
2022/07/11 16:56:31;;;;;;;1.38;0.50;;;24.30;89.00;;;;;;5028178;28;20493;-89
2022/07/11 16:59:06;;;;;;;1.23;0.55;;;24.20;88.90;;;;;;5027768;28;20026;-90
2022/07/11 17:01:47;;;;;;;1.38;0.45;;;24.40;89.70;;;;;;5035021;28;20013;-91
2022/07/11 17:04:17;;;;;;;1.25;0.55;;;24.40;89.70;;;;;;5035569;28;20025;-91
2022/07/11 17:06:48;;;;;;;1.33;0.60;;;24.30;89.40;;;;;;5025013;28;20432;-91
2022/07/11 17:09:17;;;;;;;3.55;0.50;;;24.40;88.90;;;;;;5030484;28;20481;-90
2022/07/11 17:11:55;;;;;;;1.65;0.57;;;24.30;88.60;;;;;;5022451;28;20041;-91
2022/07/11 17:14:23;;;;;;;0.90;0.40;;;24.20;87.90;;;;;;5029303;28;20517;-90
2022/07/11 17:16:49;;;;;;;1.13;0.40;;;23.90;88.20;;;;;;5033488;28;20109;-91
2022/07/11 17:19:15;;;;;;;1.10;0.40;;;23.80;88.60;;;;;;5033361;28;20117;-91
2022/07/11 17:21:41;;;;;;;1.23;0.40;;;23.70;88.60;;;;;;5033040;28;20036;-90
2022/07/11 17:24:10;;;;;;;1.00;0.60;;;23.60;88.70;;;;;;5031752;28;20025;-90
2022/07/11 17:26:39;;;;;;;1.05;0.52;;;23.50;88.80;;;;;;5033954;28;20037;-91
2022/07/11 17:29:13;;;;;;;1.65;0.68;;;23.40;89.10;;;;;;5033161;28;20037;-89
2022/07/11 17:31:45;;;;;;;1.27;0.52;;;23.40;89.40;;;;;;5030260;28;20036;-91
2022/07/11 17:34:22;;;;;;;1.38;0.50;;;23.30;89.80;;;;;;5034670;28;20022;-90
2022/07/11 17:36:53;;;;;;;1.58;0.57;;;23.20;90.00;;;;;;5032538;28;20440;-92
2022/07/11 17:39:19;;;;;;;1.13;0.45;;;23.10;90.00;;;;;;5029403;28;20041;-91
2022/07/11 17:42:01;;;;;;;1.25;0.40;;;23.10;89.00;;;;;;5030207;28;20025;-92
2022/07/11 17:44:38;;;;;;;1.17;0.40;;;23.10;89.30;;;;;;5038531;28;20044;-92
2022/07/11 17:47:13;;;;;;;1.13;0.50;;;23.00;89.50;;;;;;5025846;28;20077;-91
2022/07/11 17:49:39;;;;;;;0.85;0.50;;;23.00;89.50;;;;;;5036793;28;20033;-91
2022/07/11 17:52:22;;;;;;;1.67;0.60;;;22.90;89.40;;;;;;5033429;28;20112;-91
2022/07/11 17:54:57;;;;;;;0.88;0.40;;;22.90;90.00;;;;;;5034666;28;20032;-91
2022/07/11 17:57:24;;;;;;;1.13;0.50;;;23.00;89.70;;;;;;5030236;28;20429;-91
2022/07/11 17:59:56;;;;;;;1.23;0.60;;;22.90;89.20;;;;;;5032043;28;20026;-91
2022/07/11 18:02:24;;;;;;;1.10;0.30;;;22.90;89.60;;;;;;5033345;28;20045;-91